createdAt,value
2018-01-23T00:02:00.289Z,9.76
2018-01-23T00:04:27.785Z,9.74
2018-01-23T00:06:55.344Z,9.49
2018-01-23T00:09:22.854Z,9.67
2018-01-23T00:11:50.380Z,9.47
2018-01-23T00:14:17.908Z,9.72
2018-01-23T00:16:45.542Z,9.43
2018-01-23T00:19:13.153Z,9.57
2018-01-23T00:21:40.699Z,9.69
2018-01-23T00:24:08.205Z,9.63
2018-01-23T00:26:35.740Z,9.42
2018-01-23T00:29:04.124Z,9.41
2018-01-23T00:31:31.960Z,9.32
2018-01-23T00:33:59.456Z,9.10
2018-01-23T00:36:26.960Z,9.36
2018-01-23T00:38:54.537Z,9.27
2018-01-23T00:41:22.032Z,9.23
2018-01-23T00:43:49.597Z,9.18
2018-01-23T00:46:17.214Z,9.44
2018-01-23T00:48:44.721Z,9.19
2018-01-23T00:51:12.253Z,9.44
2018-01-23T00:53:39.758Z,9.35
2018-01-23T00:56:07.654Z,9.33
2018-01-23T00:58:35.150Z,9.41
2018-01-23T01:01:02.658Z,9.36
2018-01-23T01:03:30.229Z,9.47
2018-01-23T01:05:57.724Z,9.24
2018-01-23T01:08:25.441Z,9.30
2018-01-23T01:10:52.945Z,9.40
2018-01-23T01:13:20.452Z,9.27
2018-01-23T01:15:48.032Z,9.09
2018-01-23T01:18:15.583Z,9.46
2018-01-23T01:20:43.347Z,9.34
2018-01-23T01:23:10.949Z,9.30
2018-01-23T01:25:38.454Z,9.21
2018-01-23T01:28:06.024Z,9.42
2018-01-23T01:30:33.528Z,9.24
2018-01-23T01:33:01.246Z,9.33
2018-01-23T01:35:28.747Z,9.36
2018-01-23T01:37:56.376Z,9.39
2018-01-23T01:40:23.915Z,9.41
2018-01-23T01:42:51.412Z,9.43
2018-01-23T01:45:19.145Z,9.30
2018-01-23T01:47:46.649Z,9.46
2018-01-23T01:50:14.173Z,9.36
2018-01-23T01:52:41.717Z,9.29
2018-01-23T01:55:09.215Z,9.19
2018-01-23T01:57:37.146Z,9.04
2018-01-23T02:00:04.658Z,9.28
2018-01-23T02:02:32.165Z,9.10
2018-01-23T02:04:59.724Z,9.26
2018-01-23T02:07:27.224Z,8.69
2018-01-23T02:09:54.777Z,8.98
2018-01-23T02:12:22.293Z,8.99
2018-01-23T02:14:49.793Z,9.01
2018-01-23T02:17:17.326Z,8.87
2018-01-23T02:19:44.832Z,8.83
2018-01-23T02:22:12.530Z,8.86
2018-01-23T02:24:40.037Z,8.60
2018-01-23T02:27:07.543Z,8.62
2018-01-23T02:29:35.093Z,8.71
2018-01-23T02:32:02.592Z,8.83
2018-01-23T02:34:30.501Z,8.81
2018-01-23T02:36:58.002Z,8.64
2018-01-23T02:39:25.650Z,8.62
2018-01-23T02:41:53.207Z,8.83
2018-01-23T02:44:20.767Z,8.95
2018-01-23T02:46:48.315Z,8.84
2018-01-23T02:49:15.826Z,8.99
2018-01-23T02:51:43.342Z,8.95
2018-01-23T02:54:10.900Z,8.94
2018-01-23T02:56:38.408Z,8.91
2018-01-23T02:59:05.975Z,8.80
2018-01-23T03:01:33.476Z,8.90
2018-01-23T03:04:00.986Z,9.17
2018-01-23T03:06:28.517Z,9.29
2018-01-23T03:08:56.028Z,9.01
2018-01-23T03:11:23.564Z,9.07
2018-01-23T03:13:51.089Z,9.09
2018-01-23T03:16:18.642Z,8.94
2018-01-23T03:18:46.184Z,9.01
2018-01-23T03:21:13.693Z,9.14
2018-01-23T03:23:42.328Z,8.88
2018-01-23T03:26:09.835Z,8.95
2018-01-23T03:28:37.342Z,9.01
2018-01-23T03:31:04.903Z,8.87
2018-01-23T03:33:32.461Z,8.96
2018-01-23T03:36:00.431Z,8.82
2018-01-23T03:38:27.933Z,8.91
2018-01-23T03:40:55.435Z,8.81
2018-01-23T03:43:23.009Z,8.56
2018-01-23T03:45:50.509Z,8.95
2018-01-23T03:48:18.200Z,8.71
2018-01-23T03:50:45.713Z,8.67
2018-01-23T03:53:13.241Z,8.84
2018-01-23T03:55:40.802Z,8.69
2018-01-23T03:58:08.306Z,8.95
2018-01-23T04:00:35.924Z,8.91
2018-01-23T04:03:03.479Z,8.71
2018-01-23T04:05:30.976Z,8.70
2018-01-23T04:07:58.509Z,8.67
2018-01-23T04:10:26.005Z,8.66
2018-01-23T04:12:53.569Z,8.77
2018-01-23T04:15:21.076Z,8.58
2018-01-23T04:17:48.629Z,8.68
2018-01-23T04:20:16.138Z,8.71
2018-01-23T04:22:43.649Z,8.62
2018-01-23T04:25:11.422Z,8.83
2018-01-23T04:27:38.967Z,8.83
2018-01-23T04:30:06.473Z,8.73
2018-01-23T04:32:34.000Z,8.68
2018-01-23T04:35:01.644Z,8.60
2018-01-23T04:37:29.320Z,8.67
2018-01-23T04:39:56.865Z,8.31
2018-01-23T04:42:24.372Z,8.27
2018-01-23T04:44:51.904Z,8.45
2018-01-23T04:47:19.441Z,8.42
2018-01-23T04:49:47.103Z,8.50
2018-01-23T04:52:14.613Z,8.64
2018-01-23T04:54:42.134Z,8.44
2018-01-23T04:57:09.689Z,8.40
2018-01-23T04:59:37.195Z,8.25
2018-01-23T05:02:04.898Z,8.06
2018-01-23T05:04:32.571Z,8.20
2018-01-23T05:07:00.073Z,8.32
2018-01-23T05:09:27.642Z,8.35
2018-01-23T05:11:55.145Z,8.71
2018-01-23T05:14:23.277Z,8.40
2018-01-23T05:16:50.845Z,8.61
2018-01-23T05:19:18.372Z,8.54
2018-01-23T05:21:45.912Z,8.50
2018-01-23T05:24:13.421Z,8.55
2018-01-23T05:26:41.103Z,8.55
2018-01-23T05:29:08.609Z,8.53
2018-01-23T05:31:36.142Z,8.70
2018-01-23T05:34:03.673Z,8.64
2018-01-23T05:36:31.177Z,8.61
2018-01-23T05:38:59.078Z,8.69
2018-01-23T05:41:26.584Z,8.74
2018-01-23T05:43:54.104Z,8.64
2018-01-23T05:46:21.680Z,8.46
2018-01-23T05:48:49.217Z,8.56
2018-01-23T05:51:16.756Z,8.78
2018-01-23T05:53:44.270Z,8.80
2018-01-23T05:56:11.765Z,8.80
2018-01-23T05:58:39.295Z,8.58
2018-01-23T06:01:06.828Z,8.71
2018-01-23T06:03:34.489Z,8.04
2018-01-23T06:06:01.992Z,8.43
2018-01-23T06:08:29.620Z,8.65
2018-01-23T06:10:57.149Z,8.74
2018-01-23T06:13:25.648Z,8.82
2018-01-23T06:15:53.541Z,8.67
2018-01-23T06:18:21.073Z,8.67
2018-01-23T06:20:48.577Z,8.70
2018-01-23T06:23:16.101Z,8.57
2018-01-23T06:25:43.605Z,8.65
2018-01-23T06:28:11.257Z,8.50
2018-01-23T06:30:38.761Z,8.42
2018-01-23T06:33:06.447Z,8.31
2018-01-23T06:35:33.986Z,8.44
2018-01-23T06:38:01.485Z,8.33
2018-01-23T06:40:29.045Z,8.26
2018-01-23T06:42:56.573Z,8.38
2018-01-23T06:45:24.122Z,8.65
2018-01-23T06:47:51.857Z,8.86
2018-01-23T06:50:19.364Z,8.92
2018-01-23T06:52:46.889Z,8.94
2018-01-23T06:55:14.459Z,8.90
2018-01-23T06:57:42.019Z,8.97
2018-01-23T07:00:09.577Z,9.00
2018-01-23T07:02:37.080Z,9.03
2018-01-23T07:05:04.588Z,9.06
2018-01-23T07:07:32.357Z,8.93
2018-01-23T07:09:59.856Z,8.94
2018-01-23T07:12:27.365Z,8.82
2018-01-23T07:14:54.931Z,8.72
2018-01-23T07:17:22.426Z,8.53
2018-01-23T07:19:49.947Z,8.61
2018-01-23T07:22:17.711Z,8.46
2018-01-23T07:24:45.221Z,8.47
2018-01-23T07:27:12.757Z,8.36
2018-01-23T07:29:40.290Z,8.53
2018-01-23T07:32:07.793Z,8.10
2018-01-23T07:34:35.724Z,8.37
2018-01-23T07:37:03.224Z,8.41
2018-01-23T07:39:30.731Z,8.53
2018-01-23T07:41:58.264Z,8.53
2018-01-23T07:44:25.786Z,8.45
2018-01-23T07:46:53.422Z,8.31
2018-01-23T07:49:20.933Z,7.53
2018-01-23T07:51:48.438Z,8.09
2018-01-23T07:54:15.973Z,8.18
2018-01-23T07:56:43.485Z,8.09
2018-01-23T07:59:11.026Z,8.26
2018-01-23T08:01:38.532Z,8.39
2018-01-23T08:04:06.066Z,8.69
2018-01-23T08:06:33.593Z,8.31
2018-01-23T08:09:01.131Z,8.23
2018-01-23T08:11:28.968Z,8.53
2018-01-23T08:13:56.554Z,8.71
2018-01-23T08:16:24.053Z,8.24
2018-01-23T08:18:51.584Z,8.25
2018-01-23T08:21:19.129Z,8.03
2018-01-23T08:23:46.861Z,8.17
2018-01-23T08:26:14.384Z,7.99
2018-01-23T08:28:42.728Z,8.07
2018-01-23T08:31:10.257Z,8.35
2018-01-23T08:33:37.749Z,8.40
2018-01-23T08:36:05.477Z,8.24
2018-01-23T08:38:32.982Z,8.03
2018-01-23T08:41:00.481Z,8.37
2018-01-23T08:43:28.009Z,8.28
2018-01-23T08:45:55.546Z,8.31
2018-01-23T08:48:23.101Z,8.07
2018-01-23T08:50:50.600Z,8.37
2018-01-23T08:53:18.103Z,8.35
2018-01-23T08:55:45.673Z,8.83
2018-01-23T08:58:13.170Z,8.39
2018-01-23T09:00:40.730Z,8.65
2018-01-23T09:03:08.247Z,8.79
2018-01-23T09:05:35.749Z,8.81
2018-01-23T09:08:03.276Z,8.63
2018-01-23T09:10:30.822Z,8.57
2018-01-23T09:12:58.436Z,8.81
2018-01-23T09:15:25.941Z,8.91
2018-01-23T09:17:53.437Z,9.24
2018-01-23T09:20:20.979Z,9.06
2018-01-23T09:22:48.489Z,8.97
2018-01-23T09:25:16.177Z,9.02
2018-01-23T09:27:44.124Z,8.75
2018-01-23T09:30:11.617Z,9.08
2018-01-23T09:32:39.162Z,9.16
2018-01-23T09:35:06.721Z,8.85
2018-01-23T09:37:34.279Z,9.44
2018-01-23T09:40:01.787Z,9.22
2018-01-23T09:42:29.294Z,9.44
2018-01-23T09:44:56.854Z,9.35
2018-01-23T09:47:24.353Z,9.32
2018-01-23T09:49:52.075Z,9.61
2018-01-23T09:52:19.577Z,9.86
2018-01-23T09:54:47.081Z,9.52
2018-01-23T09:57:14.649Z,9.67
2018-01-23T09:59:42.143Z,9.68
2018-01-23T10:02:09.668Z,9.54
2018-01-23T10:04:37.234Z,10.10
2018-01-23T10:07:04.738Z,10.25
2018-01-23T10:09:32.268Z,10.22
2018-01-23T10:11:59.767Z,9.77
2018-01-23T10:14:27.433Z,10.07
2018-01-23T10:16:54.933Z,10.53
2018-01-23T10:19:22.441Z,10.57
2018-01-23T10:21:49.960Z,9.94
2018-01-23T10:24:17.470Z,10.10
2018-01-23T10:26:45.102Z,9.89
2018-01-23T10:29:12.624Z,10.20
2018-01-23T10:31:40.171Z,9.84
2018-01-23T10:34:07.728Z,9.56
2018-01-23T10:36:35.301Z,10.11
2018-01-23T10:39:02.847Z,10.28
2018-01-23T10:41:30.406Z,9.78
2018-01-23T10:43:57.913Z,10.01
2018-01-23T10:46:25.454Z,10.04
2018-01-23T10:48:52.968Z,10.37
2018-01-23T10:51:20.747Z,10.12
2018-01-23T10:53:48.304Z,10.43
2018-01-23T10:56:16.785Z,10.73
2018-01-23T10:58:44.343Z,10.26
2018-01-23T11:01:11.848Z,10.30
2018-01-23T11:03:39.542Z,10.77
2018-01-23T11:06:07.047Z,10.90
2018-01-23T11:08:34.552Z,11.03
2018-01-23T11:11:02.076Z,11.49
2018-01-23T11:13:29.581Z,11.62
2018-01-23T11:15:57.359Z,11.66
2018-01-23T11:18:24.855Z,11.77
2018-01-23T11:20:52.362Z,11.04
2018-01-23T11:23:20.037Z,11.25
2018-01-23T11:25:47.533Z,11.52
2018-01-23T11:28:15.166Z,11.55
2018-01-23T11:30:42.732Z,12.02
2018-01-23T11:33:10.682Z,11.78
2018-01-23T11:35:38.243Z,11.46
2018-01-23T11:38:05.786Z,11.71
2018-01-23T11:40:33.637Z,12.01
2018-01-23T11:43:01.153Z,12.05
2018-01-23T11:45:28.682Z,12.13
2018-01-23T11:47:56.244Z,12.46
2018-01-23T11:50:23.757Z,16.83
2018-01-23T11:52:51.425Z,17.45
2018-01-23T11:55:18.964Z,18.89
2018-01-23T11:57:46.517Z,22.31
2018-01-23T12:00:14.246Z,24.03
2018-01-23T12:02:41.752Z,23.15
2018-01-23T12:05:09.262Z,21.66
2018-01-23T12:07:37.009Z,20.62
2018-01-23T12:10:04.517Z,18.12
2018-01-23T12:12:32.021Z,17.53
2018-01-23T12:14:59.569Z,18.82
2018-01-23T12:17:27.073Z,19.04
2018-01-23T12:19:54.612Z,18.78
2018-01-23T12:22:22.292Z,17.30
2018-01-23T12:24:49.831Z,16.74
2018-01-23T12:27:17.339Z,14.63
2018-01-23T12:29:45.257Z,14.16
2018-01-23T12:32:12.765Z,13.58
2018-01-23T12:34:40.273Z,12.86
2018-01-23T12:37:07.909Z,12.27
2018-01-23T12:39:35.420Z,12.09
2018-01-23T12:42:02.951Z,12.23
2018-01-23T12:44:30.690Z,12.12
2018-01-23T12:46:58.200Z,12.27
2018-01-23T12:49:25.713Z,12.70
2018-01-23T12:51:53.292Z,12.56
2018-01-23T12:54:20.800Z,12.78
2018-01-23T12:56:48.375Z,12.54
2018-01-23T12:59:15.967Z,11.93
2018-01-23T13:01:43.532Z,12.06
2018-01-23T13:04:11.085Z,11.54
2018-01-23T13:06:38.950Z,11.76
2018-01-23T13:09:06.510Z,11.46
2018-01-23T13:11:34.076Z,11.56
2018-01-23T13:14:01.645Z,11.91
2018-01-23T13:16:29.188Z,11.49
2018-01-23T13:18:56.698Z,11.46
2018-01-23T13:21:24.241Z,11.67
2018-01-23T13:23:51.753Z,11.16
2018-01-23T13:26:19.266Z,11.48
2018-01-23T13:28:46.881Z,11.12
2018-01-23T13:31:14.441Z,11.74
2018-01-23T13:33:42.001Z,11.72
2018-01-23T13:36:09.537Z,12.14
2018-01-23T13:38:37.943Z,12.47
2018-01-23T13:41:05.494Z,12.32
2018-01-23T13:43:34.078Z,12.52
2018-01-23T13:46:01.590Z,12.16
2018-01-23T13:48:29.112Z,12.44
2018-01-23T13:50:56.660Z,12.85
2018-01-23T13:53:24.208Z,13.21
2018-01-23T13:55:51.719Z,13.05
2018-01-23T13:58:19.299Z,12.53
2018-01-23T14:00:46.821Z,12.38
2018-01-23T14:03:14.333Z,12.20
2018-01-23T14:05:41.906Z,12.14
2018-01-23T14:08:09.488Z,11.91
2018-01-23T14:10:37.026Z,11.46
2018-01-23T14:13:04.560Z,11.48
2018-01-23T14:15:32.142Z,11.09
2018-01-23T14:17:59.804Z,11.24
2018-01-23T14:20:27.362Z,11.23
2018-01-23T14:22:54.921Z,11.38
2018-01-23T14:25:22.426Z,11.70
2018-01-23T14:27:49.973Z,11.76
2018-01-23T14:30:17.496Z,11.73
2018-01-23T14:32:45.157Z,11.88
2018-01-23T14:35:12.716Z,11.89
2018-01-23T14:37:40.229Z,11.87
2018-01-23T14:40:07.785Z,11.68
2018-01-23T14:42:35.297Z,11.80
2018-01-23T14:45:02.809Z,11.30
2018-01-23T14:47:30.345Z,10.95
2018-01-23T14:49:57.889Z,11.15
2018-01-23T14:52:25.529Z,10.97
2018-01-23T14:54:53.086Z,10.99
2018-01-23T14:57:20.589Z,10.99
2018-01-23T14:59:49.025Z,11.10
2018-01-23T15:02:16.994Z,10.76
2018-01-23T15:04:44.560Z,11.11
2018-01-23T15:07:12.065Z,10.87
2018-01-23T15:09:39.577Z,10.49
2018-01-23T15:12:07.163Z,11.03
2018-01-23T15:14:34.742Z,11.06
2018-01-23T15:17:02.292Z,10.77
2018-01-23T15:19:29.852Z,10.33
2018-01-23T15:21:57.398Z,10.65
2018-01-23T15:24:24.970Z,10.37
2018-01-23T15:26:52.600Z,10.46
2018-01-23T15:29:20.469Z,10.60
2018-01-23T15:31:48.013Z,10.63
2018-01-23T15:34:15.568Z,10.87
2018-01-23T15:36:43.123Z,11.00
2018-01-23T15:39:10.891Z,10.52
2018-01-23T15:41:39.065Z,10.75
2018-01-23T15:44:06.625Z,10.48
2018-01-23T15:46:34.127Z,10.64
2018-01-23T15:49:01.946Z,10.72
2018-01-23T15:51:29.614Z,10.35
2018-01-23T15:53:57.348Z,10.28
2018-01-23T15:56:25.033Z,10.68
2018-01-23T15:58:52.607Z,10.25
2018-01-23T16:01:20.459Z,10.50
2018-01-23T16:03:48.120Z,10.85
2018-01-23T16:06:15.989Z,10.46
2018-01-23T16:08:43.546Z,10.49
2018-01-23T16:11:11.105Z,10.62
2018-01-23T16:13:38.871Z,10.77
2018-01-23T16:16:06.437Z,10.79
2018-01-23T16:18:34.919Z,10.76
2018-01-23T16:21:02.469Z,10.83
2018-01-23T16:23:30.082Z,10.84
2018-01-23T16:25:58.097Z,10.91
2018-01-23T16:28:25.760Z,10.94
2018-01-23T16:30:53.728Z,10.97
2018-01-23T16:33:21.516Z,10.96
2018-01-23T16:35:49.154Z,10.72
2018-01-23T16:38:16.815Z,10.26
2018-01-23T16:40:44.374Z,10.43
2018-01-23T16:43:12.144Z,10.00
2018-01-23T16:45:39.903Z,10.58
2018-01-23T16:48:07.566Z,10.53
2018-01-23T16:50:35.123Z,10.56
2018-01-23T16:53:02.739Z,10.74
2018-01-23T16:55:30.429Z,10.70
2018-01-23T16:57:58.210Z,10.42
2018-01-23T17:00:25.766Z,10.53
2018-01-23T17:02:53.305Z,10.24
2018-01-23T17:05:20.819Z,10.30
2018-01-23T17:07:48.520Z,10.49
2018-01-23T17:10:16.024Z,10.38
2018-01-23T17:12:43.564Z,10.28
2018-01-23T17:15:11.106Z,10.27
2018-01-23T17:17:38.655Z,10.25
2018-01-23T17:20:06.477Z,10.40
2018-01-23T17:22:34.020Z,10.26
2018-01-23T17:25:01.742Z,10.37
2018-01-23T17:27:29.453Z,10.17
2018-01-23T17:29:57.053Z,9.85
2018-01-23T17:32:25.327Z,10.19
2018-01-23T17:34:52.930Z,9.68
2018-01-23T17:37:20.487Z,9.85
2018-01-23T17:39:48.120Z,9.76
2018-01-23T17:42:16.120Z,9.89
2018-01-23T17:44:43.700Z,9.75
2018-01-23T17:47:11.337Z,9.67
2018-01-23T17:49:38.897Z,9.89
2018-01-23T17:52:06.456Z,9.44
2018-01-23T17:54:34.030Z,9.54
2018-01-23T17:57:01.584Z,9.21
2018-01-23T17:59:29.089Z,9.27
2018-01-23T18:01:56.614Z,9.35
2018-01-23T18:04:24.152Z,8.98
2018-01-23T18:06:51.651Z,9.24
2018-01-23T18:09:19.349Z,9.18
2018-01-23T18:11:46.862Z,9.18
2018-01-23T18:14:14.456Z,8.97
2018-01-23T18:16:42.050Z,9.07
2018-01-23T18:19:09.709Z,8.95
2018-01-23T18:21:37.472Z,8.80
2018-01-23T18:24:05.038Z,8.86
2018-01-23T18:26:32.796Z,8.91
2018-01-23T18:29:00.412Z,8.96
2018-01-23T18:31:30.162Z,8.49
2018-01-23T18:33:58.150Z,8.61
2018-01-23T18:36:27.233Z,8.75
2018-01-23T18:38:55.109Z,8.78
2018-01-23T18:41:23.021Z,8.85
2018-01-23T18:43:51.469Z,8.62
2018-01-23T18:46:20.130Z,8.51
2018-01-23T18:48:47.911Z,8.72
2018-01-23T18:51:15.977Z,8.56
2018-01-23T18:53:44.344Z,8.59
2018-01-23T18:56:13.173Z,8.85
2018-01-23T18:58:41.423Z,8.64
2018-01-23T19:01:09.331Z,8.65
2018-01-23T19:03:37.465Z,8.82
2018-01-23T19:06:05.620Z,8.74
2018-01-23T19:08:33.589Z,8.55
2018-01-23T19:11:02.045Z,8.40
2018-01-23T19:13:29.953Z,8.49
2018-01-23T19:15:57.806Z,8.48
2018-01-23T19:18:25.623Z,7.90
2018-01-23T19:20:53.383Z,8.25
2018-01-23T19:23:21.303Z,8.24
2018-01-23T19:25:49.062Z,8.29
2018-01-23T19:28:16.841Z,8.26
2018-01-23T19:30:44.811Z,8.10
2018-01-23T19:33:13.482Z,8.12
2018-01-23T19:35:41.450Z,8.22
2018-01-23T19:38:09.532Z,8.31
2018-01-23T19:40:38.616Z,8.17
2018-01-23T19:43:06.586Z,8.26
2018-01-23T19:45:34.554Z,8.18
2018-01-23T19:48:02.392Z,7.88
2018-01-23T19:50:30.203Z,8.07
2018-01-23T19:52:58.153Z,8.03
2018-01-23T19:55:27.556Z,8.38
2018-01-23T19:57:55.747Z,8.38
2018-01-23T20:00:23.799Z,8.51
2018-01-23T20:02:51.670Z,8.47
2018-01-23T20:05:20.361Z,8.49
2018-01-23T20:07:48.353Z,8.45
2018-01-23T20:10:17.297Z,8.81
2018-01-23T20:12:45.384Z,9.03
2018-01-23T20:15:18.511Z,8.55
2018-01-23T20:17:48.803Z,8.57
2018-01-23T20:20:18.123Z,8.86
2018-01-23T20:22:46.373Z,8.65
2018-01-23T20:25:14.624Z,8.79
2018-01-23T20:27:43.491Z,8.92
2018-01-23T20:30:12.055Z,8.60
2018-01-23T20:32:41.174Z,8.64
2018-01-23T20:35:09.493Z,8.62
2018-01-23T20:37:37.963Z,8.41
2018-01-23T20:40:05.853Z,8.77
2018-01-23T20:42:35.101Z,8.45
2018-01-23T20:45:03.465Z,8.80
2018-01-23T20:47:32.347Z,8.54
2018-01-23T20:50:00.297Z,8.54
2018-01-23T20:52:28.560Z,8.46
2018-01-23T20:54:57.379Z,8.83
2018-01-23T20:57:26.129Z,8.58
2018-01-23T20:59:54.257Z,8.89
2018-01-23T21:02:23.641Z,8.65
2018-01-23T21:04:53.249Z,8.27
2018-01-23T21:07:22.836Z,8.49
2018-01-23T21:09:51.276Z,8.70
2018-01-23T21:12:18.931Z,8.55
2018-01-23T21:14:46.822Z,8.53
2018-01-23T21:17:14.710Z,8.79
2018-01-23T21:19:43.242Z,8.80
2018-01-23T21:22:10.836Z,8.62
2018-01-23T21:24:38.598Z,8.64
2018-01-23T21:27:06.234Z,8.47
2018-01-23T21:29:34.024Z,8.69
2018-01-23T21:32:02.517Z,8.57
2018-01-23T21:34:30.780Z,8.76
2018-01-23T21:36:58.675Z,8.65
2018-01-23T21:39:26.410Z,8.64
2018-01-23T21:41:54.161Z,8.51
2018-01-23T21:44:21.957Z,8.89
2018-01-23T21:46:49.910Z,8.73
2018-01-23T21:49:17.913Z,8.53
2018-01-23T21:51:46.159Z,8.49
2018-01-23T21:54:14.102Z,8.36
2018-01-23T21:56:41.996Z,8.71
2018-01-23T21:59:09.750Z,8.90
2018-01-23T22:01:37.372Z,8.58
2018-01-23T22:04:05.169Z,8.57
2018-01-23T22:06:32.838Z,8.45
2018-01-23T22:09:01.221Z,8.43
2018-01-23T22:11:29.612Z,8.40
2018-01-23T22:13:57.273Z,8.62
2018-01-23T22:16:25.125Z,8.76
2018-01-23T22:18:52.902Z,8.80
2018-01-23T22:21:20.855Z,8.52
2018-01-23T22:23:48.695Z,8.73
2018-01-23T22:26:16.295Z,8.71
2018-01-23T22:28:44.047Z,8.86
2018-01-23T22:31:11.728Z,8.96
2018-01-23T22:33:39.455Z,8.69
2018-01-23T22:36:07.136Z,9.08
2018-01-23T22:38:34.737Z,9.16
2018-01-23T22:41:02.351Z,8.82
2018-01-23T22:43:29.870Z,8.92
2018-01-23T22:45:57.417Z,8.68
2018-01-23T22:48:24.920Z,8.62
2018-01-23T22:50:52.425Z,8.57
2018-01-23T22:53:19.951Z,8.52
2018-01-23T22:55:47.557Z,8.54
2018-01-23T22:58:15.347Z,8.64
2018-01-23T23:00:42.860Z,8.61
2018-01-23T23:03:10.385Z,8.44
2018-01-23T23:05:37.943Z,8.39
2018-01-23T23:08:05.449Z,8.60
2018-01-23T23:10:33.166Z,8.64
2018-01-23T23:13:00.672Z,8.38
2018-01-23T23:15:28.709Z,8.90
2018-01-23T23:17:56.353Z,8.87
2018-01-23T23:20:25.720Z,8.66
2018-01-23T23:22:53.608Z,9.02
2018-01-23T23:25:21.182Z,8.77
2018-01-23T23:27:48.786Z,8.75
2018-01-23T23:30:16.304Z,8.59
2018-01-23T23:32:43.803Z,8.67
2018-01-23T23:35:11.422Z,8.68
2018-01-23T23:37:38.925Z,8.64
2018-01-23T23:40:06.429Z,8.41
2018-01-23T23:42:33.973Z,8.47
2018-01-23T23:45:01.467Z,8.50
2018-01-23T23:47:29.001Z,8.77
2018-01-23T23:49:56.516Z,8.74
2018-01-23T23:52:24.230Z,8.82
2018-01-23T23:54:51.806Z,8.95
2018-01-23T23:57:19.371Z,8.72
2018-01-23T23:59:47.084Z,8.87
